Nearby METAR Reports

 

KSJC - San Jose, California, USA
Distance from station: NØ 14km
Oppdatert: 20/10/2021 08:53
Hovedsaklig skyet
Hovedsaklig skyet
 Vind fra SSØ
Vind: SSØ 9 km/h
Temperatur: 16°C
Duggpunkt: 4°C
Fuktighet: 45%
Barometer: 1015.9 hPa
Clouds: Hovedsaklig skyet
Visibility: 16 km
Cloud details: Few Clouds 1219 m
Hovedsaklig skyet 2743 m
Hovedsaklig skyet 3658 m
2021/10/20 06:53 KSJC 200653Z 16005KT 10SM FEW040 BKN090 BKN120 16/04 A3000 RMK AO2 SLP157 LAST T01560039
KNUQ - Moffett Nas/Mtn, California, USA
Distance from station: N 14km
Oppdatert: 19/10/2021 07:20
NOT Current
Klart
Klart
 Vind fra calm
Vind: Stille
Temperatur: 11°C
Duggpunkt: 8°C
Fuktighet: 82%
Barometer: 1017.6 hPa
Clouds: Klart
Visibility: 16 km
2021/10/19 05:20 KNUQ 190520Z AUTO 00000KT 10SM CLR 11/08 A3005 RMK AO2
 
KPAO - Palo Alto, California, USA
Distance from station: NNV 23km
Oppdatert: 20/10/2021 05:47
NOT Current
Hovedsaklig skyet
Hovedsaklig skyet
 Vind fra SSØ
Vind: SSØ 26 km/h
Temperatur: 16°C
Duggpunkt: 1°C
Fuktighet: 36%
Barometer: 1013.5 hPa
Clouds: Hovedsaklig skyet
Visibility: 16 km
Cloud details: Few Clouds 366 m
Hovedsaklig skyet 3658 m
2021/10/20 03:47 KPAO 200347Z 16014KT 10SM FEW012 BKN120 16/01 A2993 RMK LAST
KRHV - San Jose/Reid, California, USA
Distance from station: ØNØ 19km
Oppdatert: 20/10/2021 06:57
NOT Current
Hovedsaklig skyet
Hovedsaklig skyet
 Vind fra Ø
Vind: Ø 24 km/h
Temperatur: 16°C
Duggpunkt: 3°C
Fuktighet: 42%
Barometer: 1015.6 hPa
Clouds: Hovedsaklig skyet
Visibility: 16 km
Cloud details: Hovedsaklig skyet 3353 m
2021/10/20 04:57 KRHV 200457Z 10013KT 10SM BKN110 16/03 A2999 RMK LAST
 
KOAK - Oakland, California, USA
Distance from station: NNV 50km
Oppdatert: 20/10/2021 08:53
Lett regn, Overskyet
Lett regn, Overskyet
 Vind fra SØ
Vind: SØ 22 km/h
Temperatur: 14°C
Duggpunkt: 7°C
Fuktighet: 63%
Barometer: 1015.9 hPa
Oversikt: Lett regn
Clouds: Overskyet
Visibility: 16 km
Cloud details: Few Clouds 671 m
Hovedsaklig skyet 1372 m
Overskyet 1524 m
2021/10/20 06:53 KOAK 200653Z 14012KT 10SM -RA FEW022 BKN045 OVC050 14/07 A3000 RMK AO2 RAB25 SLP160 P0001 T01440072
KSQL - San Carlos Airpo, California, USA
Distance from station: NV 34km
Oppdatert: 20/10/2021 08:55
Overskyet
Overskyet
 Vind fra SSV
Vind: SSV 28 km/h, Vindkast: 37 km/h
Temperatur: 17°C
Duggpunkt: 2°C
Fuktighet: 37%
Barometer: 1015.9 hPa
Clouds: Overskyet
Visibility: 16 km
Cloud details: Delvis skyet 1676 m
Overskyet 2286 m
2021/10/20 06:55 KSQL 200655Z AUTO 20015G20KT 10SM SCT055 OVC075 17/02 A3000 RMK AO2
 
KSFO - San Francisco, California, USA
Distance from station: NV 49km
Oppdatert: 20/10/2021 08:56
Overskyet
Overskyet
 Vind fra S
Vind: S 22 km/h, Vindkast: 43 km/h
Temperatur: 16°C
Duggpunkt: 6°C
Fuktighet: 52%
Barometer: 1015.6 hPa
Clouds: Overskyet
Visibility: 16 km
Cloud details: Hovedsaklig skyet 1829 m
Overskyet 2286 m
2021/10/20 06:56 KSFO 200656Z 18012G23KT 10SM BKN060 OVC075 16/06 A2999 RMK AO2 RAB26E36 SLP154 P0000 T01560056
KE16 - San Martin, California, USA
Distance from station: ØSØ 43km
Oppdatert: 20/10/2021 08:55
Delvis skyet
Delvis skyet
 Vind fra ØSØ
Vind: ØSØ 7 km/h
Temperatur: 12°C
Duggpunkt: 7°C
Fuktighet: 72%
Barometer: 1017.6 hPa
Clouds: Delvis skyet
Visibility: 16 km
Cloud details: Delvis skyet 1006 m
2021/10/20 06:55 KE16 200655Z AUTO 12004KT 10SM SCT033 12/07 A3005 RMK AO2 PWINO PNO
 
KWVI - Watsonville, California, USA
Distance from station: SSØ 44km
Oppdatert: 20/10/2021 08:53
Overskyet
Overskyet
 Vind fra calm
Vind: Stille
Temperatur: 12°C
Duggpunkt: 6°C
Fuktighet: 67%
Barometer: 1017.3 hPa
Clouds: Overskyet
Visibility: 16 km
Cloud details: Few Clouds 1524 m
Overskyet 2743 m
2021/10/20 06:53 KWVI 200653Z AUTO 00000KT 10SM FEW050 OVC090 12/06 A3004 RMK AO2 SLP171 T01220061
KHAF - Half Moon Bay, California, USA
Distance from station: VNV 50km
Oppdatert: 20/10/2021 08:55
Overskyet
Overskyet
 Vind fra S
Vind: S 31 km/h, Vindkast: 43 km/h
Temperatur: 14°C
Duggpunkt: 10°C
Fuktighet: 77%
Barometer: 1015.6 hPa
Clouds: Overskyet
Visibility: 14 km
Cloud details: Hovedsaklig skyet 1036 m
Overskyet 1250 m
2021/10/20 06:55 KHAF 200655Z AUTO 17017G23KT 9SM BKN034 OVC041 14/10 A2999 RMK AO2
 
KHWD - Hayward, California, USA
Distance from station: N 44km
Oppdatert: 20/10/2021 08:54
Lett regn, Overskyet
Lett regn, Overskyet
 Vind fra S
Vind: S 20 km/h
Temperatur: 16°C
Duggpunkt: 3°C
Fuktighet: 42%
Barometer: 1015.6 hPa
Oversikt: Lett regn
Clouds: Overskyet
Visibility: 16 km
Cloud details: Overskyet 1402 m
2021/10/20 06:54 KHWD 200654Z 17011KT 10SM -RA OVC046 16/03 A2999 RMK AO2 RAB37 SLP166 P0000 T01610033
KLVK - Livermore, California, USA
Distance from station: NNØ 51km
Oppdatert: 20/10/2021 08:53
Overskyet
Overskyet
 Vind fra SV
Vind: SV 19 km/h
Temperatur: 16°C
Duggpunkt: 1°C
Fuktighet: 36%
Barometer: 1015.2 hPa
Clouds: Overskyet
Visibility: 16 km
Cloud details: Few Clouds 1829 m
Overskyet 2591 m
2021/10/20 06:53 KLVK 200653Z AUTO 23010KT 10SM FEW060 OVC085 16/01 A2998 RMK AO2 SLP147 T01610006